Costa Adriatica — IFQQ — position and weather

sailwx.info

Track history (hours):
 
Tides and Currents Weather Stations Pressure Air Temp Water Temp Dewpoint Dewpoint Depression Visibility Wind Speed Wind Dir Waves Ship Positions

Costa Adriatica

Last reported at 2018-May-24 15:51 UTC. Time now 2018-May-27 08:13 UTC.
Position N 45°38' E 012°59'.

Length 28 m.

Type: Passenger vessel. MMSI: 247194400.

Date/timePositionNaut miles runAvg speedWind from/ knotsBaromVisibWave heightAir tempDewpointWater temp
2018-May-24 15:51N 45°38' E 012°59'515.3
2018-May-24 15:30N 45°34' E 012°53'1019.0
2018-May-24 15:00N 45°30' E 012°40'1019.4
2018-May-24 14:28N 45°25' E 012°27'4 8.7
2018-May-24 14:00N 45°26' E 012°21'0 0.8
2018-May-24 13:30N 45°26' E 012°21'0 0.0
2018-May-24 09:00N 45°26' E 012°21'0 0.0
2018-May-24 08:28N 45°26' E 012°21'2 4.0
2018-May-24 07:59N 45°26' E 012°24'815.2
2018-May-24 07:27N 45°28' E 012°35'919.5
2018-May-24 07:00N 45°32' E 012°46'919.3
2018-May-24 06:30N 45°37' E 012°58'2 0.0
2018-May-22 16:03N 45°38' E 012°59'0 7.1
2018-May-22 16:00N 45°38' E 012°59'815.7
2018-May-22 15:30N 45°33' E 012°50'1018.4
2018-May-22 14:57N 45°29' E 012°37'817.5
2018-May-22 14:28N 45°25' E 012°26'3 6.8
2018-May-22 14:00N 45°26' E 012°21'0 0.5
2018-May-22 13:30N 45°26' E 012°21'0 0.0
2018-May-22 13:00N 45°26' E 012°21'0 0.0
2018-May-22 12:30N 45°26' E 012°21'0 0.0
2018-May-22 12:00N 45°26' E 012°21'0 0.0
2018-May-22 11:29N 45°26' E 012°21'0 0.0
2018-May-22 11:00N 45°26' E 012°21'0 0.0
2018-May-22 10:30N 45°26' E 012°21'0 0.0
2018-May-22 10:00N 45°26' E 012°21'0 0.0
2018-May-22 09:30N 45°26' E 012°21'0 0.0
2018-May-22 09:00N 45°26' E 012°21'0 0.0
2018-May-22 08:30N 45°26' E 012°21'1 2.9
2018-May-22 08:00N 45°26' E 012°23'713.5
2018-May-22 07:30N 45°27' E 012°32'1020.0
2018-May-22 07:00N 45°32' E 012°45'1019.8
2018-May-22 06:30N 45°36' E 012°57'2 1.5
2018-May-22 05:15N 45°38' E 012°59'2 7.4
2018-May-22 05:00N 45°37' E 012°57'24 1.8
2018-May-21 15:36N 45°25' E 012°27'4 6.3
2018-May-21 14:55N 45°26' E 012°21'0 0.0
2018-May-21 14:30N 45°26' E 012°21'0 0.0
2018-May-21 14:00N 45°26' E 012°21'0 0.0
2018-May-21 13:29N 45°26' E 012°21'0 0.0
2018-May-21 13:00N 45°26' E 012°21'0 1.0
2018-May-21 12:29N 45°26' E 012°21'3 6.9
2018-May-21 11:59N 45°22' E 012°20'16 3.2
2018-May-21 06:58N 45°28' E 012°41'  
2018-May-16 14:18N 45°26' E 012°23'1 5.0
2018-May-16 14:00N 45°26' E 012°21'0 0.0
2018-May-16 13:30N 45°26' E 012°21'0 0.0
2018-May-16 13:00N 45°26' E 012°21'0 0.0
2018-May-16 12:30N 45°26' E 012°21'0 0.0
2018-May-16 11:59N 45°26' E 012°21'0 0.0
2018-May-16 11:29N 45°26' E 012°21'0 0.0
2018-May-16 11:00N 45°26' E 012°21'0 0.0
2018-May-16 10:30N 45°26' E 012°21'0 0.0
2018-May-16 10:00N 45°26' E 012°21'0 0.0
2018-May-16 09:30N 45°26' E 012°21'0 0.0
2018-May-16 09:00N 45°26' E 012°21'0 0.0
2018-May-16 08:29N 45°26' E 012°21'  
Track history (hours):
 
Tides and Currents Weather Stations Pressure Air Temp Water Temp Dewpoint Dewpoint Depression Visibility Wind Speed Wind Dir Waves Ship Positions

Costa Adriatica

Last reported at 2018-May-24 15:51 UTC. Time now 2018-May-27 08:13 UTC.
Position N 45°38' E 012°59'.

Length 28 m.

Type: Passenger vessel. MMSI: 247194400.

Date/timePositionNaut miles runAvg speedWind from/ knotsBaromVisibWave heightAir tempDewpointWater temp
2018-May-24 15:51N 45°38' E 012°59'515.3
2018-May-24 15:30N 45°34' E 012°53'1019.0
2018-May-24 15:00N 45°30' E 012°40'1019.4
2018-May-24 14:28N 45°25' E 012°27'4 8.7
2018-May-24 14:00N 45°26' E 012°21'0 0.8
2018-May-24 13:30N 45°26' E 012°21'0 0.0
2018-May-24 09:00N 45°26' E 012°21'0 0.0
2018-May-24 08:28N 45°26' E 012°21'2 4.0
2018-May-24 07:59N 45°26' E 012°24'815.2
2018-May-24 07:27N 45°28' E 012°35'919.5
2018-May-24 07:00N 45°32' E 012°46'919.3
2018-May-24 06:30N 45°37' E 012°58'2 0.0
2018-May-22 16:03N 45°38' E 012°59'0 7.1
2018-May-22 16:00N 45°38' E 012°59'815.7
2018-May-22 15:30N 45°33' E 012°50'1018.4
2018-May-22 14:57N 45°29' E 012°37'817.5
2018-May-22 14:28N 45°25' E 012°26'3 6.8
2018-May-22 14:00N 45°26' E 012°21'0 0.5
2018-May-22 13:30N 45°26' E 012°21'0 0.0
2018-May-22 13:00N 45°26' E 012°21'0 0.0
2018-May-22 12:30N 45°26' E 012°21'0 0.0
2018-May-22 12:00N 45°26' E 012°21'0 0.0
2018-May-22 11:29N 45°26' E 012°21'0 0.0
2018-May-22 11:00N 45°26' E 012°21'0 0.0
2018-May-22 10:30N 45°26' E 012°21'0 0.0
2018-May-22 10:00N 45°26' E 012°21'0 0.0
2018-May-22 09:30N 45°26' E 012°21'0 0.0
2018-May-22 09:00N 45°26' E 012°21'0 0.0
2018-May-22 08:30N 45°26' E 012°21'1 2.9
2018-May-22 08:00N 45°26' E 012°23'713.5
2018-May-22 07:30N 45°27' E 012°32'1020.0
2018-May-22 07:00N 45°32' E 012°45'1019.8
2018-May-22 06:30N 45°36' E 012°57'2 1.5
2018-May-22 05:15N 45°38' E 012°59'2 7.4
2018-May-22 05:00N 45°37' E 012°57'24 1.8
2018-May-21 15:36N 45°25' E 012°27'4 6.3
2018-May-21 14:55N 45°26' E 012°21'0 0.0
2018-May-21 14:30N 45°26' E 012°21'0 0.0
2018-May-21 14:00N 45°26' E 012°21'0 0.0
2018-May-21 13:29N 45°26' E 012°21'0 0.0
2018-May-21 13:00N 45°26' E 012°21'0 1.0
2018-May-21 12:29N 45°26' E 012°21'3 6.9
2018-May-21 11:59N 45°22' E 012°20'16 3.2
2018-May-21 06:58N 45°28' E 012°41'  
2018-May-16 14:18N 45°26' E 012°23'1 5.0
2018-May-16 14:00N 45°26' E 012°21'0 0.0
2018-May-16 13:30N 45°26' E 012°21'0 0.0
2018-May-16 13:00N 45°26' E 012°21'0 0.0
2018-May-16 12:30N 45°26' E 012°21'0 0.0
2018-May-16 11:59N 45°26' E 012°21'0 0.0
2018-May-16 11:29N 45°26' E 012°21'0 0.0
2018-May-16 11:00N 45°26' E 012°21'0 0.0
2018-May-16 10:30N 45°26' E 012°21'0 0.0
2018-May-16 10:00N 45°26' E 012°21'0 0.0
2018-May-16 09:30N 45°26' E 012°21'0 0.0
2018-May-16 09:00N 45°26' E 012°21'0 0.0
2018-May-16 08:29N 45°26' E 012°21'  

Dump ship's entire track history